Terminal Aerodrome Forecast
Issued by NWS Shreveport, LA

Home | Current Version | Previous Version | Text Only | Print | Product List | Glossary On
Versions: 1 2 3 4 5 6 7 8 9 10 11 12 13 14 15 16 17
000
FTUS44 KSHV 201700
TAFGGG
TAF
KGGG 201738Z 2018/2118 20010KT P6SM SCT035 SCT250
     FM202100 16008KT P6SM VCTS SCT045CB SCT250
     FM210200 17005KT P6SM SCT250
     FM211100 17005KT P6SM BKN010
     FM211500 19010KT P6SM SCT025 SCT250=

USA.gov is the U.S. government's official web portal to all federal, state and local government web resources and services.